createdAt,value
2019-02-05T00:01:34.017Z,13.00
2019-02-05T00:04:09.474Z,13.00
2019-02-05T00:06:43.590Z,13.00
2019-02-05T00:09:17.838Z,13.00
2019-02-05T00:11:51.094Z,13.00
2019-02-05T00:14:24.671Z,13.00
2019-02-05T00:16:58.910Z,13.10
2019-02-05T00:19:32.308Z,13.10
2019-02-05T00:22:07.013Z,13.10
2019-02-05T00:24:40.806Z,13.10
2019-02-05T00:27:15.036Z,13.10
2019-02-05T00:29:48.417Z,13.20
2019-02-05T00:32:23.162Z,13.10
2019-02-05T00:34:57.747Z,13.10
2019-02-05T00:37:31.489Z,13.10
2019-02-05T00:40:05.831Z,13.00
2019-02-05T00:42:39.117Z,12.90
2019-02-05T00:45:13.959Z,13.00
2019-02-05T00:47:49.097Z,13.00
2019-02-05T00:50:23.001Z,13.00
2019-02-05T00:52:56.633Z,13.00
2019-02-05T00:55:31.490Z,12.90
2019-02-05T00:58:06.264Z,12.80
2019-02-05T01:00:39.736Z,12.80
2019-02-05T01:03:14.058Z,12.70
2019-02-05T01:05:48.272Z,12.70
2019-02-05T01:08:21.964Z,12.70
2019-02-05T01:10:55.700Z,12.70
2019-02-05T01:13:29.615Z,12.70
2019-02-05T01:16:03.633Z,12.60
2019-02-05T01:18:37.580Z,12.70
2019-02-05T01:21:11.856Z,12.80
2019-02-05T01:23:45.685Z,12.80
2019-02-05T01:26:29.032Z,12.80
2019-02-05T01:28:54.907Z,12.80
2019-02-05T01:31:28.609Z,12.70
2019-02-05T01:34:02.425Z,12.70
2019-02-05T01:36:36.616Z,12.70
2019-02-05T01:39:11.465Z,12.70
2019-02-05T01:41:45.276Z,12.80
2019-02-05T01:44:19.988Z,12.70
2019-02-05T01:46:53.302Z,12.70
2019-02-05T01:49:27.504Z,12.60
2019-02-05T01:52:02.027Z,12.60
2019-02-05T01:54:35.742Z,12.70
2019-02-05T01:57:09.854Z,12.60
2019-02-05T01:59:43.630Z,12.60
2019-02-05T02:02:17.901Z,12.50
2019-02-05T02:04:51.807Z,12.40
2019-02-05T02:07:25.820Z,12.50
2019-02-05T02:10:00.094Z,12.60
2019-02-05T02:12:34.333Z,12.60
2019-02-05T02:15:08.820Z,12.50
2019-02-05T02:17:43.281Z,12.50
2019-02-05T02:20:18.489Z,12.60
2019-02-05T02:22:52.435Z,12.70
2019-02-05T02:25:25.614Z,12.70
2019-02-05T02:27:58.909Z,12.50
2019-02-05T02:30:36.370Z,12.50
2019-02-05T02:33:09.906Z,12.30
2019-02-05T02:35:43.784Z,12.20
2019-02-05T02:38:16.659Z,12.20
2019-02-05T02:40:50.509Z,12.20
2019-02-05T02:43:24.228Z,12.20
2019-02-05T02:45:58.272Z,12.30
2019-02-05T02:48:33.172Z,12.30
2019-02-05T02:51:07.238Z,12.30
2019-02-05T02:53:41.591Z,12.20
2019-02-05T02:56:15.532Z,12.10
2019-02-05T02:58:49.790Z,12.10
2019-02-05T03:01:23.506Z,12.10
2019-02-05T03:03:57.707Z,12.00
2019-02-05T03:06:31.525Z,12.00
2019-02-05T03:09:07.702Z,12.00
2019-02-05T03:11:42.259Z,11.90
2019-02-05T03:14:15.749Z,11.80
2019-02-05T03:16:49.972Z,11.80
2019-02-05T03:19:23.737Z,11.70
2019-02-05T03:21:57.097Z,11.70
2019-02-05T03:24:30.864Z,11.70
2019-02-05T03:27:16.942Z,11.70
2019-02-05T03:29:41.493Z,11.70
2019-02-05T03:32:16.711Z,11.60
2019-02-05T03:34:50.527Z,11.50
2019-02-05T03:37:24.787Z,11.50
2019-02-05T03:39:58.637Z,11.60
2019-02-05T03:42:31.996Z,11.60
2019-02-05T03:45:06.026Z,11.50
2019-02-05T03:47:39.643Z,11.50
2019-02-05T03:50:13.830Z,11.50
2019-02-05T03:52:57.074Z,11.50
2019-02-05T03:56:13.663Z,11.60
2019-02-05T03:59:49.832Z,11.70
2019-02-05T04:03:18.836Z,11.80
2019-02-05T04:07:04.394Z,12.00
2019-02-05T04:10:56.335Z,12.10
2019-02-05T04:14:24.534Z,12.10
2019-02-05T04:17:46.045Z,11.90
2019-02-05T04:21:08.278Z,11.80
2019-02-05T04:24:28.799Z,11.70
2019-02-05T04:28:07.441Z,11.60
2019-02-05T04:31:25.457Z,11.50
2019-02-05T04:34:48.566Z,11.60
2019-02-05T04:38:28.051Z,11.70
2019-02-05T04:41:29.175Z,11.60
2019-02-05T04:44:37.764Z,11.60
2019-02-05T04:47:46.293Z,11.70
2019-02-05T04:51:08.082Z,11.60
2019-02-05T04:54:44.068Z,11.60
2019-02-05T04:57:58.018Z,11.50
2019-02-05T05:01:17.796Z,11.40
2019-02-05T05:04:14.745Z,11.40
2019-02-05T05:07:48.562Z,11.40
2019-02-05T05:10:21.949Z,11.40
2019-02-05T05:12:55.732Z,11.30
2019-02-05T05:15:29.115Z,11.20
2019-02-05T05:18:03.673Z,11.10
2019-02-05T05:20:37.706Z,11.10
2019-02-05T05:23:11.912Z,11.00
2019-02-05T05:25:46.232Z,10.90
2019-02-05T05:28:20.632Z,10.80
2019-02-05T05:30:54.194Z,10.80
2019-02-05T05:33:28.471Z,10.80
2019-02-05T05:36:02.171Z,10.80
2019-02-05T05:38:36.370Z,10.80
2019-02-05T05:41:10.606Z,10.60
2019-02-05T05:43:44.775Z,10.50
2019-02-05T05:46:18.504Z,10.30
2019-02-05T05:48:52.250Z,10.10
2019-02-05T05:51:25.958Z,9.90
2019-02-05T05:54:00.154Z,9.80
2019-02-05T05:56:33.980Z,9.80
2019-02-05T05:59:08.263Z,9.80
2019-02-05T06:01:41.493Z,9.90
2019-02-05T06:04:15.264Z,9.80
2019-02-05T06:06:50.001Z,9.90
2019-02-05T06:09:23.860Z,9.90
2019-02-05T06:11:57.096Z,9.90
2019-02-05T06:14:30.814Z,10.00
2019-02-05T06:17:04.611Z,10.10
2019-02-05T06:19:39.144Z,10.10
2019-02-05T06:22:12.415Z,10.00
2019-02-05T06:24:46.746Z,10.10
2019-02-05T06:27:20.582Z,10.20
2019-02-05T06:29:54.811Z,10.10
2019-02-05T06:32:28.485Z,10.10
2019-02-05T06:35:02.933Z,10.10
2019-02-05T06:37:36.237Z,10.10
2019-02-05T06:40:10.066Z,10.10
2019-02-05T06:42:44.144Z,10.10
2019-02-05T06:45:17.726Z,10.30
2019-02-05T06:47:50.966Z,10.40
2019-02-05T06:50:25.202Z,10.50
2019-02-05T06:52:59.621Z,10.70
2019-02-05T06:55:34.686Z,10.70
2019-02-05T06:58:07.809Z,10.80
2019-02-05T07:00:41.642Z,10.80
2019-02-05T07:03:15.833Z,10.80
2019-02-05T07:05:49.081Z,10.90
2019-02-05T07:08:23.054Z,11.00
2019-02-05T07:10:57.287Z,11.10
2019-02-05T07:13:31.887Z,11.30
2019-02-05T07:16:05.585Z,11.20
2019-02-05T07:18:40.139Z,11.30
2019-02-05T07:21:14.487Z,11.40
2019-02-05T07:23:48.177Z,11.60
2019-02-05T07:26:21.416Z,11.70
2019-02-05T07:28:58.864Z,11.70
2019-02-05T07:31:30.658Z,11.80
2019-02-05T07:34:05.051Z,11.80
2019-02-05T07:36:39.274Z,11.80
2019-02-05T07:39:14.320Z,11.90
2019-02-05T07:41:48.689Z,12.10
2019-02-05T07:44:22.635Z,12.20
2019-02-05T07:46:56.361Z,12.20
2019-02-05T07:49:30.656Z,12.10
2019-02-05T07:52:04.679Z,12.10
2019-02-05T07:54:38.606Z,12.00
2019-02-05T07:57:12.772Z,11.80
2019-02-05T07:59:47.248Z,11.90
2019-02-05T08:02:21.731Z,12.00
2019-02-05T08:04:55.598Z,12.10
2019-02-05T08:07:29.887Z,12.10
2019-02-05T08:10:03.767Z,12.00
2019-02-05T08:12:38.809Z,12.00
2019-02-05T08:15:17.873Z,12.20
2019-02-05T08:17:52.393Z,12.40
2019-02-05T08:20:27.282Z,12.50
2019-02-05T08:23:01.960Z,12.50
2019-02-05T08:25:37.011Z,12.50
2019-02-05T08:28:10.770Z,12.50
2019-02-05T08:30:48.275Z,12.60
2019-02-05T08:33:22.698Z,12.60
2019-02-05T08:35:57.827Z,12.60
2019-02-05T08:38:32.641Z,12.60
2019-02-05T08:41:06.826Z,12.70
2019-02-05T08:43:41.293Z,12.80
2019-02-05T08:46:16.171Z,12.90
2019-02-05T08:48:50.508Z,13.00
2019-02-05T08:51:24.520Z,12.90
2019-02-05T08:53:59.116Z,12.90
2019-02-05T08:56:32.310Z,12.80
2019-02-05T08:59:05.659Z,12.90
2019-02-05T09:01:39.275Z,12.90
2019-02-05T09:04:14.089Z,12.90
2019-02-05T09:06:47.763Z,12.80
2019-02-05T09:09:21.387Z,12.80
2019-02-05T09:11:55.692Z,12.70
2019-02-05T09:14:29.936Z,12.80
2019-02-05T09:17:03.391Z,12.70
2019-02-05T09:19:37.421Z,12.60
2019-02-05T09:22:10.322Z,12.20
2019-02-05T09:24:43.688Z,12.30
2019-02-05T09:27:19.388Z,12.40
2019-02-05T09:29:52.924Z,12.40
2019-02-05T09:32:34.938Z,12.60
2019-02-05T09:35:03.521Z,12.60
2019-02-05T09:37:38.234Z,12.90
2019-02-05T09:40:16.199Z,13.10
2019-02-05T09:42:50.034Z,13.10
2019-02-05T09:45:27.056Z,13.20
2019-02-05T09:48:02.028Z,13.10
2019-02-05T09:50:44.252Z,13.30
2019-02-05T09:53:12.458Z,13.20
2019-02-05T09:55:46.387Z,13.00
2019-02-05T09:58:21.350Z,13.00
2019-02-05T10:00:56.023Z,12.90
2019-02-05T10:03:30.427Z,13.00
2019-02-05T10:06:04.958Z,13.10
2019-02-05T10:08:39.952Z,13.10
2019-02-05T10:11:14.891Z,13.10
2019-02-05T10:13:50.481Z,13.20
2019-02-05T10:16:26.187Z,13.30
2019-02-05T10:19:01.221Z,13.10
2019-02-05T10:21:38.261Z,13.10
2019-02-05T10:24:12.828Z,13.20
2019-02-05T10:26:47.575Z,13.40
2019-02-05T10:29:22.916Z,13.30
2019-02-05T10:31:57.852Z,13.30
2019-02-05T10:34:34.234Z,13.20
2019-02-05T10:37:10.019Z,13.20
2019-02-05T10:39:43.807Z,12.70
2019-02-05T10:42:18.072Z,12.90
2019-02-05T10:44:52.467Z,12.80
2019-02-05T10:47:26.661Z,12.70
2019-02-05T10:50:00.386Z,12.60
2019-02-05T10:52:35.517Z,11.90
2019-02-05T10:55:11.510Z,11.80
2019-02-05T10:57:46.175Z,12.20
2019-02-05T11:00:28.208Z,12.60
2019-02-05T11:03:04.045Z,13.00
2019-02-05T11:05:39.564Z,13.30
2019-02-05T11:08:13.606Z,12.90
2019-02-05T11:10:47.833Z,12.70
2019-02-05T11:13:21.887Z,12.80
2019-02-05T11:15:56.276Z,12.90
2019-02-05T11:18:32.038Z,13.20
2019-02-05T11:21:06.459Z,13.60
2019-02-05T11:23:41.234Z,13.10
2019-02-05T11:26:15.570Z,13.20
2019-02-05T11:28:49.581Z,13.50
2019-02-05T11:31:23.951Z,13.40
2019-02-05T11:33:59.189Z,13.20
2019-02-05T11:36:32.489Z,12.70
2019-02-05T11:39:14.492Z,12.10
2019-02-05T11:41:49.215Z,12.10
2019-02-05T11:44:23.714Z,12.30
2019-02-05T11:46:57.386Z,12.40
2019-02-05T11:49:31.024Z,12.40
2019-02-05T11:52:05.147Z,12.20
2019-02-05T11:54:38.130Z,12.70
2019-02-05T11:57:11.040Z,13.30
2019-02-05T11:59:44.785Z,13.20
2019-02-05T12:02:17.714Z,13.90
2019-02-05T12:04:51.135Z,14.70
2019-02-05T12:07:24.564Z,15.00
2019-02-05T12:09:57.203Z,15.00
2019-02-05T12:12:29.680Z,14.70
2019-02-05T12:15:03.573Z,14.70
2019-02-05T12:17:39.491Z,14.40
2019-02-05T12:20:14.830Z,14.20
2019-02-05T12:22:48.716Z,14.10
2019-02-05T12:25:21.953Z,14.30
2019-02-05T12:27:54.849Z,14.50
2019-02-05T12:30:44.510Z,15.00
2019-02-05T12:33:10.669Z,15.50
2019-02-05T12:35:45.517Z,15.50
2019-02-05T12:38:19.267Z,15.60
2019-02-05T12:40:53.108Z,15.30
2019-02-05T12:43:28.269Z,15.50
2019-02-05T12:46:02.498Z,15.80
2019-02-05T12:48:36.668Z,16.20
2019-02-05T12:51:10.223Z,16.70
2019-02-05T12:53:44.160Z,16.70
2019-02-05T12:56:17.650Z,16.80
2019-02-05T13:02:21.688Z,17.20
2019-02-05T13:10:18.279Z,17.80
